Time;durP1;ratioP1;P1;durP2;ratioP2;P2;SDS_P1;SDS_P2;PMS_P1;PMS_P2;Temp;Humidity;BMP_temperature;BMP_pressure;BME280_temperature;BME280_humidity;BME280_pressure;Samples;Min_cycle;Max_cycle;Signal;HPM_P1;HPM_P2
2023/01/08 00:00:44;;;;;;;7.82;6.22;;;;;;;2.71;100.00;62281.03;5047815;28;20194;-78
2023/01/08 00:03:11;;;;;;;4.13;3.78;;;;;;;2.72;100.00;62282.06;5050012;28;20202;-78
2023/01/08 00:05:39;;;;;;;4.72;3.67;;;;;;;2.67;100.00;62273.91;5038749;28;20229;-78
2023/01/08 00:08:07;;;;;;;3.83;2.72;;;;;;;2.67;100.00;62276.94;5040265;28;20202;-77
2023/01/08 00:10:36;;;;;;;3.83;3.40;;;;;;;2.51;100.00;62257.97;5042768;28;20205;-79
2023/01/08 00:13:03;;;;;;;5.53;3.05;;;;;;;2.47;100.00;62256.38;5050247;28;20210;-79
2023/01/08 00:15:29;;;;;;;3.65;2.97;;;;;;;2.46;100.00;62252.84;5049925;28;20209;-80
2023/01/08 00:17:56;;;;;;;2.70;2.40;;;;;;;2.45;100.00;62253.81;5050203;28;20272;-80
2023/01/08 00:20:24;;;;;;;3.03;2.58;;;;;;;2.38;100.00;62237.59;5050612;28;20198;-78
2023/01/08 00:22:52;;;;;;;2.80;2.30;;;;;;;2.34;100.00;62241.03;5050629;28;20204;-79
2023/01/08 00:25:19;;;;;;;2.67;2.47;;;;;;;2.29;100.00;62240.41;5048602;28;20202;-79
2023/01/08 00:27:48;;;;;;;7.38;4.85;;;;;;;2.29;100.00;62237.91;5048942;28;20234;-79
2023/01/08 00:30:14;;;;;;;5.95;3.75;;;;;;;2.24;100.00;62225.72;5049340;28;20201;-79
2023/01/08 00:32:41;;;;;;;5.50;3.90;;;;;;;2.24;100.00;62235.78;5041313;28;20440;-79
2023/01/08 00:35:12;;;;;;;3.75;3.10;;;;;;;2.29;100.00;62235.38;5039225;28;20202;-79
2023/01/08 00:37:39;;;;;;;3.90;3.58;;;;;;;2.27;100.00;62233.31;5052208;28;20230;-79
2023/01/08 00:40:07;;;;;;;4.53;2.90;;;;;;;2.24;100.00;62230.25;5052755;28;20230;-79
2023/01/08 00:42:35;;;;;;;3.25;2.92;;;;;;;2.18;100.00;62219.06;5043182;28;20222;-79
2023/01/08 00:45:03;;;;;;;5.38;3.40;;;;;;;2.19;100.00;62223.09;5029996;28;20210;-79
2023/01/08 00:47:30;;;;;;;5.28;2.63;;;;;;;2.20;100.00;62226.13;5029671;28;20243;-79
2023/01/08 00:49:57;;;;;;;6.50;3.65;;;;;;;2.22;100.00;62228.72;5030971;28;20504;-79
2023/01/08 00:52:24;;;;;;;4.47;3.30;;;;;;;2.16;100.00;62225.06;5051492;28;20222;-78
2023/01/08 00:54:51;;;;;;;2.97;2.78;;;;;;;2.27;100.00;62235.84;5050060;28;20265;-78
2023/01/08 00:57:18;;;;;;;3.60;3.30;;;;;;;1.97;100.00;62200.53;5049057;28;20225;-80
2023/01/08 00:59:45;;;;;;;4.00;3.38;;;;;;;2.18;100.00;62219.06;5045879;28;20280;-78
2023/01/08 01:02:13;;;;;;;2.90;2.70;;;;;;;2.04;100.00;62215.25;5047356;28;20218;-77
2023/01/08 01:04:40;;;;;;;5.88;2.60;;;;;;;2.12;100.00;62215.41;5052462;28;20206;-79
2023/01/08 01:07:07;;;;;;;3.40;3.05;;;;;;;2.09;100.00;62212.31;5051809;28;20228;-80
2023/01/08 01:09:34;;;;;;;5.65;2.50;;;;;;;2.11;100.00;62217.41;5049117;28;20204;-80
2023/01/08 01:12:01;;;;;;;2.60;2.40;;;;;;;2.14;100.00;62217.97;5045619;28;20226;-79
2023/01/08 01:14:28;;;;;;;4.45;2.85;;;;;;;2.05;100.00;62213.75;5048532;28;20202;-78
2023/01/08 01:16:55;;;;;;;7.47;3.65;;;;;;;2.04;100.00;62210.22;5048002;28;20543;-78
2023/01/08 01:19:23;;;;;;;3.55;2.88;;;;;;;2.01;100.00;62206.63;5039608;28;20226;-79
2023/01/08 01:21:50;;;;;;;2.50;2.30;;;;;;;1.83;100.00;62188.16;5030331;28;20222;-79
2023/01/08 01:24:17;;;;;;;2.95;2.63;;;;;;;2.04;100.00;62210.22;5031103;28;20435;-79
2023/01/08 01:26:44;;;;;;;3.47;2.40;;;;;;;2.11;100.00;62214.91;5029687;28;20265;-79
2023/01/08 01:29:11;;;;;;;3.00;2.80;;;;;;;2.09;100.00;62217.88;5047637;28;20208;-79
2023/01/08 01:31:38;;;;;;;2.88;2.22;;;;;;;2.09;100.00;62214.84;5048156;28;20214;-78
2023/01/08 01:34:05;;;;;;;2.83;2.40;;;;;;;2.08;100.00;62211.81;5050633;28;20499;-79
2023/01/08 01:36:34;;;;;;;3.88;3.28;;;;;;;2.01;100.00;62207.16;5049297;28;20217;-79
2023/01/08 01:39:01;;;;;;;6.50;4.10;;;;;;;1.99;100.00;62205.09;5046377;28;20430;-78
2023/01/08 01:41:31;;;;;;;4.32;2.83;;;;;;;2.03;100.00;62209.19;5046024;28;20214;-78
2023/01/08 01:43:59;;;;;;;5.70;3.10;;;;;;;2.02;100.00;62212.69;5046563;28;20500;-80
2023/01/08 01:46:36;;;;;;;3.00;2.70;;;;;;;2.00;100.00;62210.63;5047169;28;20288;-79
2023/01/08 01:49:08;;;;;;;5.30;3.30;;;;;;;1.94;100.00;62199.97;5030646;28;20225;-79
2023/01/08 01:51:41;;;;;;;2.95;2.70;;;;;;;1.93;100.00;62200.94;5027620;28;20229;-78
2023/01/08 01:54:11;;;;;;;3.47;2.95;;;;;;;1.89;100.00;62192.31;5027370;28;20237;-78
2023/01/08 01:56:37;;;;;;;4.63;3.17;;;;;;;1.90;100.00;62195.31;5043394;28;20536;-78
2023/01/08 01:59:05;;;;;;;3.80;3.50;;;;;;;1.89;100.00;62196.81;5045967;28;20221;-78
2023/01/08 02:01:34;;;;;;;5.60;4.35;;;;;;;1.85;100.00;62195.22;5046735;28;20221;-79
2023/01/08 02:04:00;;;;;;;3.55;3.25;;;;;;;1.81;100.00;62191.13;5047274;28;20240;-80
2023/01/08 02:06:38;;;;;;;4.53;3.75;;;;;;;1.75;100.00;62179.94;5041657;28;20237;-77
2023/01/08 02:09:14;;;;;;;4.03;3.63;;;;;;;1.73;100.00;62177.88;5033669;28;20237;-78
2023/01/08 02:11:47;;;;;;;3.25;2.92;;;;;;;1.73;100.00;62175.88;5027240;28;20226;-78
2023/01/08 02:14:22;;;;;;;3.75;3.40;;;;;;;1.72;100.00;62177.38;5030303;28;20240;-78
2023/01/08 02:16:55;;;;;;;4.35;3.55;;;;;;;1.65;100.00;62172.69;5045345;28;20217;-78
2023/01/08 02:19:37;;;;;;;7.05;3.67;;;;;;;1.67;100.00;62172.25;5046950;28;20449;-79
2023/01/08 02:22:19;;;;;;;4.53;3.17;;;;;;;1.64;100.00;62171.66;5047188;28;20256;-79
2023/01/08 02:24:56;;;;;;;3.35;3.15;;;;;;;1.58;100.00;62165.50;5046252;28;20221;-78
2023/01/08 02:27:27;;;;;;;6.13;2.35;;;;;;;1.49;100.00;62150.72;5043195;28;20397;-79
2023/01/08 02:29:56;;;;;;;5.80;2.20;;;;;;;1.54;100.00;62160.88;5047447;28;20202;-79
2023/01/08 02:32:26;;;;;;;2.72;2.53;;;;;;;1.53;100.00;62159.88;5044474;28;20221;-78
2023/01/08 02:34:53;;;;;;;3.08;2.70;;;;;;;1.51;100.00;62157.81;5045413;28;20257;-78
2023/01/08 02:37:21;;;;;;;4.78;2.35;;;;;;;1.51;100.00;62158.31;5045791;28;20222;-79
2023/01/08 02:40:03;;;;;;;2.88;2.40;;;;;;;1.47;100.00;62151.22;5046769;28;20233;-78
2023/01/08 02:42:38;;;;;;;2.33;2.13;;;;;;;1.47;100.00;62153.72;5046182;28;20218;-79
2023/01/08 02:45:14;;;;;;;2.92;2.63;;;;;;;1.52;100.00;62156.34;5039003;28;20201;-79
2023/01/08 02:47:45;;;;;;;2.47;2.30;;;;;;;1.53;100.00;62159.88;5048348;28;20214;-78
2023/01/08 02:50:19;;;;;;;2.55;2.17;;;;;;;1.58;100.00;62165.00;5045023;28;20206;-78
2023/01/08 02:52:55;;;;;;;4.43;4.03;;;;;;;1.57;100.00;62161.47;5044170;28;20225;-78
2023/01/08 02:55:26;;;;;;;5.95;4.55;;;;;;;1.60;100.00;62162.03;5042165;28;20201;-78
2023/01/08 02:57:54;;;;;;;6.82;5.68;;;;;;;1.54;100.00;62156.38;5046906;28;20204;-78
2023/01/08 03:00:22;;;;;;;5.85;5.22;;;;;;;1.59;100.00;62166.53;5045966;28;20229;-79
2023/01/08 03:02:52;;;;;;;7.63;5.50;;;;;;;1.58;100.00;62162.47;5046307;28;20526;-79
2023/01/08 03:05:26;;;;;;;5.60;3.70;;;;;;;1.66;100.00;62170.69;5045294;28;20198;-78
2023/01/08 03:07:54;;;;;;;3.97;3.05;;;;;;;1.60;100.00;62162.03;5046181;28;20225;-79
2023/01/08 03:10:25;;;;;;;4.47;3.47;;;;;;;1.65;100.00;62169.66;5045242;28;20205;-78
2023/01/08 03:12:56;;;;;;;4.15;2.67;;;;;;;1.64;100.00;62171.16;5034785;28;20480;-78
2023/01/08 03:15:30;;;;;;;3.75;3.03;;;;;;;1.63;100.00;62165.09;5036424;28;20385;-79
2023/01/08 03:18:02;;;;;;;5.57;3.25;;;;;;;1.59;100.00;62161.50;5045222;28;20201;-78
2023/01/08 03:20:31;;;;;;;4.50;3.65;;;;;;;1.54;100.00;62163.38;5044955;28;20229;-80
2023/01/08 03:22:59;;;;;;;4.18;3.50;;;;;;;1.47;100.00;62148.69;5027842;28;20214;-79
2023/01/08 03:25:30;;;;;;;3.75;3.35;;;;;;;1.42;100.00;62148.56;5040031;28;20422;-79
2023/01/08 03:28:02;;;;;;;4.63;3.58;;;;;;;1.46;100.00;62150.69;5044746;28;20206;-78
2023/01/08 03:30:31;;;;;;;8.45;5.03;;;;;;;1.38;100.00;62142.47;5040620;28;20455;-78
2023/01/08 03:33:00;;;;;;;5.88;4.95;;;;;;;1.44;100.00;62150.63;5040674;28;20221;-79
2023/01/08 03:35:30;;;;;;;4.82;4.22;;;;;;;1.34;100.00;62138.38;5044192;28;20202;-78
2023/01/08 03:38:08;;;;;;;9.27;5.00;;;;;;;1.32;100.00;62133.28;5045877;28;20198;-80
2023/01/08 03:40:39;;;;;;;8.70;4.70;;;;;;;1.30;100.00;62133.75;5045043;28;20237;-80
2023/01/08 03:43:08;;;;;;;5.38;4.30;;;;;;;1.24;100.00;62132.63;5044413;28;20186;-78
2023/01/08 03:45:37;;;;;;;5.78;4.13;;;;;;;1.29;100.00;62133.25;5045944;28;20387;-79
2023/01/08 03:48:05;;;;;;;4.22;3.60;;;;;;;1.26;100.00;62132.66;5045899;28;20198;-79
2023/01/08 03:50:33;;;;;;;4.47;3.58;;;;;;;1.24;100.00;62130.63;5044957;28;20206;-78
2023/01/08 03:53:01;;;;;;;3.13;2.50;;;;;;;1.18;100.00;62122.47;5046670;28;20198;-78
2023/01/08 03:55:27;;;;;;;5.15;2.45;;;;;;;1.19;100.00;62125.50;5044054;28;20216;-79
2023/01/08 03:57:54;;;;;;;3.97;2.90;;;;;;;1.18;100.00;62124.97;5045521;28;20198;-78
2023/01/08 04:00:23;;;;;;;4.93;3.63;;;;;;;1.23;100.00;62126.56;5053329;28;20417;-79
2023/01/08 04:02:50;;;;;;;7.35;4.53;;;;;;;1.11;100.00;62114.78;5047110;28;20199;-78
2023/01/08 04:05:17;;;;;;;9.13;4.53;;;;;;;1.15;100.00;62119.41;5042132;28;20230;-79
2023/01/08 04:07:45;;;;;;;5.03;4.50;;;;;;;1.13;100.00;62116.81;5053816;28;20225;-79
2023/01/08 04:10:12;;;;;;;5.53;4.30;;;;;;;1.15;100.00;62118.88;5049693;28;20198;-79
2023/01/08 04:12:40;;;;;;;5.82;4.35;;;;;;;1.16;100.00;62120.41;5043894;28;20424;-79
2023/01/08 04:15:08;;;;;;;4.80;3.95;;;;;;;1.15;100.00;62121.38;5046180;28;20203;-78
2023/01/08 04:17:37;;;;;;;6.35;3.95;;;;;;;1.14;100.00;62115.34;5030337;28;20222;-79
2023/01/08 04:20:05;;;;;;;3.28;2.83;;;;;;;1.19;100.00;62126.00;5026429;28;20234;-78
2023/01/08 04:22:31;;;;;;;2.72;2.53;;;;;;;1.11;100.00;62112.25;5045144;28;20268;-79
2023/01/08 04:24:58;;;;;;;3.08;2.88;;;;;;;1.10;100.00;62114.25;5048360;28;20260;-79
2023/01/08 04:27:25;;;;;;;4.38;3.20;;;;;;;1.10;100.00;62116.75;5048623;28;20276;-77
2023/01/08 04:29:52;;;;;;;6.78;3.17;;;;;;;1.21;100.00;62127.53;5050512;28;20205;-79
2023/01/08 04:32:19;;;;;;;2.75;2.53;;;;;;;1.17;100.00;62123.94;5047801;28;20426;-78
2023/01/08 04:34:48;;;;;;;5.82;3.63;;;;;;;1.21;100.00;62127.53;5049172;28;20487;-78
2023/01/08 04:37:14;;;;;;;5.85;4.55;;;;;;;1.21;100.00;62127.53;5047165;28;20427;-78
2023/01/08 04:39:41;;;;;;;8.10;4.78;;;;;;;1.15;100.00;62116.88;5048137;28;20222;-78
2023/01/08 04:42:08;;;;;;;15.85;8.00;;;;;;;1.10;100.00;62111.75;5045076;28;20214;-78
2023/01/08 04:44:35;;;;;;;25.70;11.20;;;;;;;1.14;100.00;62115.84;5036345;28;20190;-78
2023/01/08 04:47:02;;;;;;;18.25;8.73;;;;;;;1.11;100.00;62112.25;5048163;28;20222;-79
2023/01/08 04:49:29;;;;;;;14.98;9.30;;;;;;;1.09;100.00;62118.25;5048124;28;20245;-79
2023/01/08 04:51:57;;;;;;;16.23;9.70;;;;;;;1.05;100.00;62114.13;5037564;28;20218;-79
2023/01/08 04:54:24;;;;;;;16.33;9.32;;;;;;;1.11;100.00;62117.78;5028043;28;20194;-79
2023/01/08 04:56:51;;;;;;;14.30;9.55;;;;;;;1.08;100.00;62111.69;5046492;28;20226;-78
2023/01/08 04:59:19;;;;;;;10.73;6.78;;;;;;;1.01;100.00;62104.50;5047623;28;20249;-77
2023/01/08 05:01:46;;;;;;;16.48;8.80;;;;;;;0.97;100.00;62100.91;5047706;28;20232;-79
2023/01/08 05:04:12;;;;;;;15.60;8.70;;;;;;;0.98;100.00;62103.94;5047810;28;20202;-78
2023/01/08 05:06:39;;;;;;;14.15;8.02;;;;;;;0.96;100.00;62099.91;5047429;28;20243;-78
2023/01/08 05:09:08;;;;;;;11.52;6.97;;;;;;;0.89;100.00;62094.72;5046502;28;20252;-78
2023/01/08 05:11:36;;;;;;;10.90;6.50;;;;;;;0.93;100.00;62096.81;5032633;28;20254;-78
2023/01/08 05:14:03;;;;;;;6.22;4.47;;;;;;;0.91;100.00;62092.28;5028903;28;20182;-79
2023/01/08 05:16:30;;;;;;;9.93;4.95;;;;;;;0.88;100.00;62091.69;5047095;28;20225;-79
2023/01/08 05:18:57;;;;;;;9.90;5.63;;;;;;;0.94;100.00;62095.34;5044605;28;20208;-78
2023/01/08 05:21:24;;;;;;;6.80;5.10;;;;;;;0.91;100.00;62094.25;5047819;28;20430;-80
2023/01/08 05:23:51;;;;;;;7.60;4.93;;;;;;;0.84;100.00;62087.59;5047469;28;20210;-79
2023/01/08 05:26:20;;;;;;;7.88;5.15;;;;;;;0.89;100.00;62095.22;5048368;28;20226;-79
2023/01/08 05:28:46;;;;;;;13.23;6.22;;;;;;;0.89;100.00;62092.22;5047309;28;20198;-79
2023/01/08 05:31:15;;;;;;;5.10;4.38;;;;;;;0.84;100.00;62087.59;5045998;28;20277;-80
2023/01/08 05:33:42;;;;;;;4.57;4.18;;;;;;;0.84;100.00;62087.59;5047463;28;20256;-79
2023/01/08 05:36:10;;;;;;;6.65;5.55;;;;;;;0.95;100.00;62103.38;5047370;28;20224;-78
2023/01/08 05:38:38;;;;;;;8.43;5.82;;;;;;;0.90;100.00;62098.22;5046396;28;20495;-79
2023/01/08 05:41:06;;;;;;;7.15;5.43;;;;;;;0.97;100.00;62100.91;5046984;28;20238;-78
2023/01/08 05:43:34;;;;;;;7.18;5.95;;;;;;;0.95;100.00;62103.38;5047254;28;20202;-78
2023/01/08 05:46:03;;;;;;;6.65;4.93;;;;;;;0.98;100.00;62104.44;5045701;28;20229;-79
2023/01/08 05:48:34;;;;;;;9.77;5.93;;;;;;;0.98;100.00;62098.94;5045751;28;20198;-80
2023/01/08 05:51:01;;;;;;;11.25;6.18;;;;;;;0.97;100.00;62102.91;5046390;28;20221;-78
2023/01/08 05:53:30;;;;;;;7.53;5.82;;;;;;;0.99;100.00;62105.47;5046129;28;20287;-79
2023/01/08 05:56:02;;;;;;;7.68;5.55;;;;;;;0.93;100.00;62096.81;5039997;28;20227;-79
2023/01/08 05:58:29;;;;;;;4.30;3.97;;;;;;;0.89;100.00;62095.22;5027110;28;20269;-78
2023/01/08 06:01:02;;;;;;;4.40;4.00;;;;;;;0.90;100.00;62091.22;5026515;28;20238;-78
2023/01/08 06:03:29;;;;;;;8.15;4.57;;;;;;;0.89;100.00;62095.22;5026526;28;20195;-78
2023/01/08 06:05:58;;;;;;;4.00;3.65;;;;;;;0.89;100.00;62092.22;5041756;28;20215;-79
2023/01/08 06:08:25;;;;;;;5.28;3.58;;;;;;;0.85;100.00;62088.63;5026379;28;20206;-78
2023/01/08 06:10:52;;;;;;;3.97;3.53;;;;;;;0.87;100.00;62093.19;5026714;28;20219;-79
2023/01/08 06:13:19;;;;;;;7.15;4.47;;;;;;;0.89;100.00;62092.72;5027650;28;20194;-79
2023/01/08 06:15:46;;;;;;;6.45;4.38;;;;;;;0.92;100.00;62098.31;5038483;28;20225;-78
2023/01/08 06:18:14;;;;;;;6.38;5.13;;;;;;;0.83;100.00;62089.06;5047318;28;20238;-78
2023/01/08 06:20:41;;;;;;;7.30;4.70;;;;;;;0.91;100.00;62097.28;5047638;28;20272;-78
2023/01/08 06:23:08;;;;;;;8.20;5.68;;;;;;;0.96;100.00;62096.88;5044608;28;20244;-78
2023/01/08 06:25:35;;;;;;;10.95;6.20;;;;;;;0.98;100.00;62104.44;5035728;28;20456;-78
2023/01/08 06:28:02;;;;;;;12.05;7.72;;;;;;;1.05;100.00;62111.13;5035980;28;20206;-79
2023/01/08 06:30:29;;;;;;;7.25;5.00;;;;;;;1.08;100.00;62109.72;5032735;28;20198;-79
2023/01/08 06:32:56;;;;;;;7.47;5.40;;;;;;;1.08;100.00;62114.19;5044707;28;20348;-77
2023/01/08 06:35:25;;;;;;;13.50;9.35;;;;;;;1.22;100.00;62131.06;5029743;28;20278;-78
2023/01/08 06:37:52;;;;;;;14.85;9.60;;;;;;;1.31;100.00;62137.81;5034377;28;20205;-78
2023/01/08 06:40:19;;;;;;;6.53;5.82;;;;;;;1.33;100.00;62137.34;5031465;28;20250;-78
2023/01/08 06:42:46;;;;;;;11.95;7.43;;;;;;;1.41;100.00;62148.06;5032498;28;20230;-78
2023/01/08 06:45:13;;;;;;;14.45;8.88;;;;;;;1.47;100.00;62149.19;5039819;28;20256;-79
2023/01/08 06:47:40;;;;;;;11.23;8.52;;;;;;;1.46;100.00;62150.16;5026671;28;20406;-78
2023/01/08 06:50:09;;;;;;;15.13;10.68;;;;;;;1.55;100.00;62164.94;5039647;28;20291;-79
2023/01/08 06:52:38;;;;;;;27.58;15.38;;;;;;;1.59;100.00;62161.00;5037555;28;20423;-78
2023/01/08 06:55:06;;;;;;;25.48;15.98;;;;;;;1.58;100.00;62162.47;5033821;28;20359;-78
2023/01/08 06:57:32;;;;;;;33.88;19.58;;;;;;;1.72;100.00;62179.88;5037801;28;20217;-77
2023/01/08 06:59:59;;;;;;;32.53;19.58;;;;;;;1.70;100.00;62175.31;5043414;28;20288;-79
2023/01/08 07:02:26;;;;;;;34.33;18.73;;;;;;;1.72;100.00;62179.38;5032468;28;20288;-78
2023/01/08 07:04:53;;;;;;;28.75;18.33;;;;;;;1.83;100.00;62193.69;5040864;28;20214;-79
2023/01/08 07:07:20;;;;;;;34.00;19.23;;;;;;;1.92;100.00;62197.38;5034174;28;20253;-79
2023/01/08 07:09:48;;;;;;;34.17;19.73;;;;;;;1.98;100.00;62203.56;5044923;28;20244;-78
2023/01/08 07:12:15;;;;;;;31.67;18.90;;;;;;;2.06;100.00;62216.78;5037177;28;20236;-78
2023/01/08 07:14:42;;;;;;;29.15;18.88;;;;;;;2.19;100.00;62230.13;5039672;28;20194;-79
2023/01/08 07:17:09;;;;;;;31.80;18.00;;;;;;;2.43;100.00;62249.25;5046142;28;20256;-78
2023/01/08 07:19:36;;;;;;;32.95;20.15;;;;;;;2.73;100.00;62280.06;5043883;28;20198;-78
2023/01/08 07:22:03;;;;;;;28.08;18.50;;;;;;;3.20;100.00;62328.88;5044720;28;20222;-79
2023/01/08 07:24:30;;;;;;;29.20;17.75;;;;;;;3.55;100.00;62364.84;5044968;28;20507;-79
2023/01/08 07:26:59;;;;;;;37.15;20.67;;;;;;;3.81;100.00;62395.63;5047153;28;20233;-77
2023/01/08 07:29:26;;;;;;;35.72;20.02;;;;;;;3.90;100.00;62402.34;5034065;28;20233;-79
2023/01/08 07:31:52;;;;;;;29.35;19.27;;;;;;;3.90;100.00;62404.88;5046120;28;20226;-77
2023/01/08 07:34:19;;;;;;;28.73;17.98;;;;;;;4.01;100.00;62411.16;5046993;28;20198;-78
2023/01/08 07:36:46;;;;;;;31.38;18.83;;;;;;;3.64;100.00;62376.13;5045225;28;20217;-78
2023/01/08 07:39:13;;;;;;;33.85;21.23;;;;;;;3.29;100.00;62337.63;5034988;28;20204;-79
2023/01/08 07:41:40;;;;;;;36.70;21.42;;;;;;;3.22;100.00;62332.94;5044429;28;20291;-78
2023/01/08 07:44:08;;;;;;;38.22;21.40;;;;;;;3.11;100.00;62322.16;5045055;28;20241;-78
2023/01/08 07:46:35;;;;;;;28.13;18.80;;;;;;;3.07;100.00;62317.53;5045401;28;20214;-79
2023/01/08 07:49:02;;;;;;;25.08;16.10;;;;;;;3.04;100.00;62309.91;5034769;28;20211;-79
2023/01/08 07:51:29;;;;;;;26.40;14.82;;;;;;;2.90;100.00;62300.06;5026264;28;20487;-78
2023/01/08 07:53:56;;;;;;;25.42;14.65;;;;;;;2.93;100.00;62298.63;5025493;28;20191;-78
2023/01/08 07:56:24;;;;;;;30.23;15.20;;;;;;;2.98;100.00;62310.78;5041037;28;20280;-79
2023/01/08 07:58:52;;;;;;;22.40;13.98;;;;;;;3.10;100.00;62323.13;5050407;28;20456;-79
2023/01/08 08:01:20;;;;;;;19.27;13.57;;;;;;;2.96;100.00;62301.69;5049684;28;20237;-79
2023/01/08 08:03:47;;;;;;;25.55;14.60;;;;;;;2.81;100.00;62286.28;5050191;28;20198;-78
2023/01/08 08:06:14;;;;;;;21.60;13.60;;;;;;;2.75;100.00;62287.66;5048074;28;20221;-79
2023/01/08 08:08:41;;;;;;;21.27;14.73;;;;;;;2.95;100.00;62307.72;5051011;28;20232;-80
2023/01/08 08:11:08;;;;;;;24.92;14.85;;;;;;;2.98;100.00;62303.25;5034616;28;20226;-80
2023/01/08 08:13:35;;;;;;;30.48;15.15;;;;;;;3.04;100.00;62314.94;5031452;28;20194;-79
2023/01/08 08:16:02;;;;;;;21.92;13.10;;;;;;;2.96;100.00;62306.22;5041374;28;20276;-79
2023/01/08 08:18:31;;;;;;;27.88;15.05;;;;;;;3.14;100.00;62325.22;5047170;28;20199;-80
2023/01/08 08:20:58;;;;;;;21.27;13.85;;;;;;;3.26;100.00;62332.03;5046748;28;20581;-79
2023/01/08 08:23:25;;;;;;;19.30;12.85;;;;;;;3.42;100.00;62356.53;5048044;28;20194;-78
2023/01/08 08:25:52;;;;;;;24.85;14.82;;;;;;;3.52;100.00;62364.28;5047841;28;20409;-79
2023/01/08 08:28:19;;;;;;;27.85;13.48;;;;;;;3.70;100.00;62381.78;5044101;28;20211;-79
2023/01/08 08:30:46;;;;;;;17.23;13.35;;;;;;;3.66;100.00;62378.19;5029938;28;20241;-80
2023/01/08 08:33:14;;;;;;;16.52;12.77;;;;;;;3.77;100.00;62386.97;5042284;28;20236;-81
2023/01/08 08:35:49;;;;;;;20.73;13.20;;;;;;;3.81;100.00;62393.09;5045127;28;20198;-79
2023/01/08 08:38:16;;;;;;;19.90;12.30;;;;;;;3.98;100.00;62405.53;5030517;28;20190;-79
2023/01/08 08:40:43;;;;;;;21.23;12.75;;;;;;;4.03;100.00;62410.69;5050146;28;20298;-78
2023/01/08 08:43:11;;;;;;;21.20;12.85;;;;;;;4.23;100.00;62434.28;5049480;28;20467;-79
2023/01/08 08:45:40;;;;;;;21.20;12.88;;;;;;;4.44;100.00;62457.91;5042400;28;20261;-78
2023/01/08 08:48:08;;;;;;;16.98;10.57;;;;;;;4.52;99.47;62464.13;5048751;28;20198;-80
2023/01/08 08:50:36;;;;;;;21.20;11.52;;;;;;;4.55;97.47;62469.25;5043376;28;20198;-79
2023/01/08 08:53:06;;;;;;;24.13;12.07;;;;;;;4.48;97.36;62464.56;5044991;28;20388;-79
2023/01/08 08:55:34;;;;;;;21.20;12.68;;;;;;;4.45;97.20;62459.44;5048887;28;20209;-78
2023/01/08 08:58:05;;;;;;;17.75;10.65;;;;;;;4.59;96.66;62476.38;5047345;28;20213;-79
2023/01/08 09:00:32;;;;;;;14.75;8.68;;;;;;;4.60;96.32;62474.38;5046463;28;20238;-79
2023/01/08 09:02:59;;;;;;;13.40;8.80;;;;;;;4.75;96.13;62492.34;5045850;28;20216;-80
2023/01/08 09:05:27;;;;;;;15.35;8.35;;;;;;;4.84;94.25;62498.56;5051103;28;20210;-80
2023/01/08 09:07:54;;;;;;;12.25;8.52;;;;;;;4.89;93.83;62501.72;5047945;28;20240;-80
2023/01/08 09:10:23;;;;;;;14.02;8.90;;;;;;;4.82;93.19;62491.47;5046939;28;20228;-79
2023/01/08 09:12:50;;;;;;;11.70;8.50;;;;;;;4.98;92.62;62515.50;5037354;28;20488;-79
2023/01/08 09:15:17;;;;;;;12.35;8.35;;;;;;;5.10;91.30;62520.81;5029273;28;20238;-79
2023/01/08 09:17:45;;;;;;;11.55;8.23;;;;;;;5.10;92.01;62525.34;5030884;28;20246;-79
2023/01/08 09:20:15;;;;;;;10.35;7.80;;;;;;;5.28;91.31;62544.41;5048613;28;20245;-78
2023/01/08 09:22:44;;;;;;;11.27;8.65;;;;;;;5.15;90.70;62527.97;5043498;28;20531;-79
2023/01/08 09:25:11;;;;;;;12.38;9.00;;;;;;;5.42;91.16;62558.28;5045789;28;20203;-79
2023/01/08 09:27:39;;;;;;;12.07;7.70;;;;;;;5.42;89.55;62561.34;5048810;28;20240;-78
2023/01/08 09:30:07;;;;;;;15.50;9.48;;;;;;;5.57;88.95;62571.75;5046740;28;20204;-79
2023/01/08 09:32:34;;;;;;;12.55;8.40;;;;;;;5.32;88.35;62548.53;5046890;28;20222;-79
2023/01/08 09:35:01;;;;;;;13.07;8.80;;;;;;;5.57;89.53;62571.75;5047722;28;20221;-78
2023/01/08 09:37:28;;;;;;;11.73;9.27;;;;;;;5.79;88.64;62594.44;5048095;28;20218;-80
2023/01/08 09:39:55;;;;;;;14.65;8.15;;;;;;;5.86;86.12;62603.66;5047439;28;20236;-78
2023/01/08 09:42:27;;;;;;;13.02;7.63;;;;;;;5.93;84.44;62608.34;5052978;28;20237;-80
2023/01/08 09:44:59;;;;;;;13.20;7.60;;;;;;;6.03;84.01;62623.72;5054564;28;20359;-78
2023/01/08 09:47:29;;;;;;;12.52;7.43;;;;;;;5.85;84.78;62600.09;5048906;28;20417;-79
2023/01/08 09:50:03;;;;;;;12.05;8.32;;;;;;;6.02;84.89;62617.63;5052652;28;20221;-78
2023/01/08 09:52:33;;;;;;;10.43;8.10;;;;;;;5.91;84.43;62605.78;5058003;28;20201;-79
2023/01/08 09:55:02;;;;;;;10.70;8.27;;;;;;;5.80;85.79;62599.97;5055149;28;20206;-80
2023/01/08 09:57:30;;;;;;;12.73;9.27;;;;;;;5.84;85.76;62597.06;5046898;28;20266;-78
2023/01/08 10:00:24;;;;;;;12.20;8.13;;;;;;;5.83;85.62;62596.03;5032852;28;20194;-80
2023/01/08 10:02:59;;;;;;;13.63;8.88;;;;;;;6.19;85.01;62634.63;5043712;28;20202;-80
2023/01/08 10:06:14;;;;;;;16.73;10.38;;;;;;;6.50;83.64;62669.66;5050319;28;20186;-79
2023/01/08 10:08:47;;;;;;;13.93;9.90;;;;;;;6.68;82.93;62685.16;5008276;28;20547;-80
2023/01/08 10:11:16;;;;;;;16.90;9.65;;;;;;;6.68;81.72;62683.13;5009396;28;20222;-77
2023/01/08 10:13:49;;;;;;;14.27;9.30;;;;;;;6.91;80.96;62708.88;5022037;28;20203;-79
2023/01/08 10:16:37;;;;;;;16.88;11.00;;;;;;;6.52;80.25;62671.19;5074543;23;20332;-79
2023/01/08 10:28:03;;;;;;;19.77;12.32;;;;;;;7.04;78.88;62725.34;5043554;28;20221;-79
2023/01/08 10:30:38;;;;;;;18.40;12.25;;;;;;;7.49;78.82;62773.78;5025964;28;20218;-79
2023/01/08 10:33:14;;;;;;;17.80;12.23;;;;;;;7.59;77.74;62779.03;5025523;28;20186;-78
2023/01/08 10:35:42;;;;;;;19.33;13.65;;;;;;;7.52;77.09;62773.84;5025240;28;20206;-77
2023/01/08 10:38:25;;;;;;;23.20;13.88;;;;;;;7.54;77.51;62775.91;5037305;28;20232;-77
2023/01/08 10:40:52;;;;;;;20.23;13.05;;;;;;;7.69;76.87;62791.38;5055959;28;20252;-79
2023/01/08 10:43:25;;;;;;;20.23;13.13;;;;;;;7.77;76.20;62797.63;5053823;28;20258;-79
2023/01/08 10:45:58;;;;;;;19.30;12.52;;;;;;;7.98;75.90;62818.78;5039245;28;20234;-77
2023/01/08 10:48:32;;;;;;;21.50;14.57;;;;;;;8.03;75.05;62824.47;5051453;28;20209;-79
2023/01/08 10:51:12;;;;;;;20.42;14.05;;;;;;;8.07;75.45;62828.09;5045221;28;20445;-79
2023/01/08 10:53:41;;;;;;;22.33;13.52;;;;;;;8.26;74.72;62850.28;5049683;28;20186;-80
2023/01/08 10:56:20;;;;;;;21.20;13.35;;;;;;;8.22;73.94;62843.56;5052394;28;20259;-78
2023/01/08 10:58:47;;;;;;;24.90;15.98;;;;;;;7.83;75.64;62806.38;5031017;28;20209;-79
2023/01/08 11:01:20;;;;;;;25.50;14.65;;;;;;;7.90;76.00;62813.56;5045385;28;20229;-80
2023/01/08 11:03:52;;;;;;;23.33;15.18;;;;;;;8.05;75.55;62828.56;5035459;28;20237;-79
2023/01/08 11:06:22;;;;;;;26.70;14.95;;;;;;;8.05;74.41;62826.53;5062185;28;20227;-78
2023/01/08 11:08:54;;;;;;;21.65;14.43;;;;;;;7.92;75.21;62815.66;5056186;28;20232;-79
2023/01/08 11:11:22;;;;;;;25.33;15.70;;;;;;;7.89;76.04;62814.56;5044957;28;20218;-79
2023/01/08 11:13:57;;;;;;;22.02;15.43;;;;;;;8.02;76.47;62828.50;5043984;28;20481;-79
2023/01/08 11:16:31;;;;;;;25.90;14.75;;;;;;;8.19;74.57;62837.94;5046881;28;20263;-79
2023/01/08 11:19:00;;;;;;;23.20;13.63;;;;;;;8.35;73.13;62859.03;5040885;28;20199;-79
2023/01/08 11:21:30;;;;;;;27.63;15.45;;;;;;;8.52;72.89;62874.06;5045927;28;20291;-78
2023/01/08 11:24:31;;;;;;;20.77;14.45;;;;;;;8.32;72.44;62853.41;5047424;28;20196;-80
2023/01/08 11:27:05;;;;;;;21.50;14.48;;;;;;;8.39;72.71;62866.22;5044150;28;20249;-80
2023/01/08 11:29:40;;;;;;;23.83;15.00;;;;;;;8.48;71.90;62872.47;5044441;28;20224;-78
2023/01/08 11:32:27;;;;;;;21.45;14.48;;;;;;;8.58;72.05;62885.34;5044957;28;20353;-77
2023/01/08 11:35:01;;;;;;;23.90;15.10;;;;;;;8.68;70.84;62890.59;5050822;28;20376;-81
2023/01/08 11:37:30;;;;;;;21.67;14.88;;;;;;;8.82;70.09;62908.13;5053043;28;20220;-79
2023/01/08 11:39:57;;;;;;;21.00;13.73;;;;;;;8.87;68.38;62915.31;5052656;28;20245;-78
2023/01/08 11:42:52;;;;;;;23.45;15.25;;;;;;;8.66;70.07;62891.56;5052933;28;20233;-79
2023/01/08 11:45:28;;;;;;;23.08;14.48;;;;;;;8.78;70.65;62900.94;5048530;28;20186;-80
2023/01/08 11:48:22;;;;;;;21.17;14.80;;;;;;;8.91;69.12;62916.91;5043266;28;20260;-79